Time;durP1;ratioP1;P1;durP2;ratioP2;P2;SDS_P1;SDS_P2;PMS_P1;PMS_P2;Temp;Humidity;BMP_temperature;BMP_pressure;BME280_temperature;BME280_humidity;BME280_pressure;Samples;Min_cycle;Max_cycle;Signal;HPM_P1;HPM_P2
2023/03/20 00:00:57;;;;;;;16.15;9.27;;;6.30;99.90;;;;;;5042623;28;20151;-80
2023/03/20 00:03:26;;;;;;;15.45;8.77;;;6.20;99.90;;;;;;5074504;28;20497;-82
2023/03/20 00:05:53;;;;;;;12.38;8.40;;;6.20;99.90;;;;;;5079137;28;20048;-79
2023/03/20 00:08:21;;;;;;;13.57;8.65;;;6.20;99.90;;;;;;5048405;28;20044;-81
2023/03/20 00:10:48;;;;;;;16.67;8.60;;;6.20;99.90;;;;;;5088940;28;20066;-80
2023/03/20 00:13:26;;;;;;;16.25;8.52;;;6.20;99.90;;;;;;5065269;28;20560;-80
2023/03/20 00:15:54;;;;;;;13.10;8.98;;;6.20;99.90;;;;;;5090854;28;20135;-80
2023/03/20 00:18:25;;;;;;;16.58;8.85;;;6.20;99.90;;;;;;5078338;28;20044;-80
2023/03/20 00:20:53;;;;;;;15.95;8.50;;;6.30;99.90;;;;;;5057591;28;20449;-77
2023/03/20 00:23:21;;;;;;;14.40;8.45;;;6.20;99.90;;;;;;5071032;28;20052;-79
2023/03/20 00:25:49;;;;;;;15.25;8.48;;;6.20;99.90;;;;;;5087693;28;20099;-80
2023/03/20 00:28:42;;;;;;;13.70;8.45;;;6.20;99.90;;;;;;5072726;28;20052;-81
2023/03/20 00:31:23;;;;;;;14.50;7.97;;;6.20;99.90;;;;;;5057745;28;20078;-81
2023/03/20 00:33:57;;;;;;;12.23;8.32;;;6.20;99.90;;;;;;5089115;28;20048;-81
2023/03/20 00:36:25;;;;;;;14.07;8.05;;;6.20;99.90;;;;;;5083319;28;20098;-80
2023/03/20 00:38:53;;;;;;;13.50;8.60;;;6.10;99.90;;;;;;5091484;28;20082;-80
2023/03/20 00:41:25;;;;;;;13.23;7.80;;;6.10;99.90;;;;;;5076211;28;20084;-80
2023/03/20 00:43:55;;;;;;;14.52;7.68;;;6.20;99.90;;;;;;5056541;28;20040;-81
2023/03/20 00:46:23;;;;;;;12.80;7.93;;;6.20;99.90;;;;;;5080174;28;20048;-81
2023/03/20 00:48:53;;;;;;;11.77;7.97;;;6.10;99.90;;;;;;5060220;28;20048;-82
2023/03/20 00:51:20;;;;;;;15.85;7.32;;;6.10;99.90;;;;;;5089676;28;20074;-81
2023/03/20 00:53:48;;;;;;;12.30;7.70;;;6.10;99.90;;;;;;5052808;28;20393;-81
2023/03/20 00:56:31;;;;;;;11.57;7.78;;;6.10;99.90;;;;;;5082148;28;20048;-80
2023/03/20 00:59:00;;;;;;;11.93;7.20;;;6.10;99.90;;;;;;5052934;28;20045;-81
2023/03/20 01:01:29;;;;;;;11.43;7.50;;;6.10;99.90;;;;;;5056842;28;20048;-81
2023/03/20 01:03:58;;;;;;;17.15;8.13;;;6.10;99.90;;;;;;5075299;28;20130;-81
2023/03/20 01:06:27;;;;;;;14.90;8.40;;;6.10;99.90;;;;;;5091947;28;20512;-81
2023/03/20 01:08:56;;;;;;;14.55;7.78;;;6.10;99.90;;;;;;5073899;28;20048;-82
2023/03/20 01:11:26;;;;;;;14.20;7.50;;;6.10;99.90;;;;;;5071503;28;20052;-80
2023/03/20 01:13:53;;;;;;;12.77;7.82;;;6.10;99.90;;;;;;5089290;28;20500;-83
2023/03/20 01:16:23;;;;;;;13.18;7.95;;;6.00;99.90;;;;;;5074685;28;20052;-81
2023/03/20 01:18:52;;;;;;;12.13;8.13;;;6.10;99.90;;;;;;5059635;28;20048;-80
2023/03/20 01:21:24;;;;;;;12.15;8.27;;;6.10;99.90;;;;;;5081206;28;20111;-80
2023/03/20 01:23:52;;;;;;;13.75;7.45;;;6.10;99.90;;;;;;5055973;28;20575;-82
2023/03/20 01:26:24;;;;;;;11.13;7.68;;;6.20;99.90;;;;;;5071362;28;20046;-80
2023/03/20 01:28:52;;;;;;;14.68;8.05;;;6.10;99.90;;;;;;5090531;28;20076;-81
2023/03/20 01:31:20;;;;;;;11.57;7.97;;;6.20;99.90;;;;;;5078661;28;20077;-80
2023/03/20 01:33:48;;;;;;;12.68;8.13;;;6.20;99.90;;;;;;5072348;28;20045;-81
2023/03/20 01:36:22;;;;;;;12.63;7.78;;;6.20;99.90;;;;;;5060792;28;20524;-81
2023/03/20 01:38:55;;;;;;;11.18;7.95;;;6.20;99.90;;;;;;5074857;28;20048;-80
2023/03/20 01:41:25;;;;;;;16.90;8.88;;;6.20;99.90;;;;;;5082852;28;20654;-79
2023/03/20 01:43:53;;;;;;;11.48;7.63;;;6.20;99.90;;;;;;5057595;28;20543;-81
2023/03/20 01:46:25;;;;;;;11.23;7.20;;;6.20;99.90;;;;;;5068509;28;20075;-82
2023/03/20 01:49:07;;;;;;;13.93;7.65;;;6.20;99.90;;;;;;5056183;28;20055;-81
2023/03/20 01:51:36;;;;;;;14.32;8.73;;;6.20;99.90;;;;;;5061156;28;20060;-80
2023/03/20 01:54:15;;;;;;;13.60;8.85;;;6.10;99.90;;;;;;5058754;28;20138;-80
2023/03/20 01:56:55;;;;;;;13.13;7.80;;;6.10;99.90;;;;;;5074262;28;20076;-80
2023/03/20 01:59:28;;;;;;;16.65;8.35;;;6.10;99.90;;;;;;5073811;28;20043;-80
2023/03/20 02:01:57;;;;;;;15.75;8.10;;;6.10;99.90;;;;;;5054345;28;20054;-80
2023/03/20 02:04:30;;;;;;;14.98;9.20;;;6.10;99.90;;;;;;5065029;28;20479;-80
2023/03/20 02:07:09;;;;;;;19.45;11.10;;;6.10;99.90;;;;;;5067521;28;20056;-80
2023/03/20 02:09:47;;;;;;;13.95;8.43;;;6.00;99.90;;;;;;5056620;28;20052;-81
2023/03/20 02:12:21;;;;;;;13.32;8.10;;;6.00;99.90;;;;;;5058296;28;20416;-81
2023/03/20 02:14:51;;;;;;;11.73;8.15;;;6.10;99.90;;;;;;5074303;28;20047;-80
2023/03/20 02:17:53;;;;;;;13.20;7.63;;;6.10;99.90;;;;;;5062584;28;20416;-78
2023/03/20 02:20:34;;;;;;;13.05;8.18;;;6.00;99.90;;;;;;5072949;28;20106;-80
2023/03/20 02:23:52;;;;;;;10.68;7.25;;;6.10;99.90;;;;;;5071626;28;20049;-80
2023/03/20 02:26:43;;;;;;;17.00;9.00;;;6.10;99.90;;;;;;5041409;28;20513;-78
2023/03/20 02:29:38;;;;;;;;;;;6.10;99.90;;;;;;5067526;28;20493;-81
2023/03/20 02:33:01;;;;;;;13.65;7.90;;;6.00;99.90;;;;;;5074057;28;19978;-81
2023/03/20 02:36:15;;;;;;;17.60;8.13;;;6.00;99.90;;;;;;5077912;28;20048;-80
2023/03/20 02:38:59;;;;;;;;;;;6.00;99.90;;;;;;4984103;28;20685;-79
2023/03/20 02:41:31;;;;;;;15.33;8.27;;;6.00;99.90;;;;;;5073816;28;19924;-80
2023/03/20 02:44:06;;;;;;;11.33;8.53;;;6.00;99.90;;;;;;5072914;28;20377;-80
2023/03/20 02:46:49;;;;;;;18.02;9.60;;;6.00;99.90;;;;;;5053283;28;20822;-81
2023/03/20 02:49:42;;;;;;;12.75;8.20;;;6.00;99.90;;;;;;5048738;28;20536;-81
2023/03/20 02:52:17;;;;;;;15.40;8.18;;;5.90;99.90;;;;;;5069589;28;20055;-81
2023/03/20 02:54:59;;;;;;;13.30;9.15;;;6.00;99.90;;;;;;5069329;28;20068;-79
2023/03/20 02:57:40;;;;;;;11.07;8.00;;;6.00;99.90;;;;;;5083213;28;20126;-81
2023/03/20 03:00:16;;;;;;;14.57;8.93;;;5.90;99.90;;;;;;5073582;28;20413;-80
2023/03/20 03:02:52;;;;;;;11.52;8.55;;;5.90;99.90;;;;;;5078348;28;20055;-80
2023/03/20 03:05:24;;;;;;;12.18;8.65;;;5.80;99.90;;;;;;5062908;28;20048;-81
2023/03/20 03:07:57;;;;;;;13.50;8.23;;;5.80;99.90;;;;;;5056388;28;20531;-79
2023/03/20 03:10:30;;;;;;;13.60;8.32;;;5.70;99.90;;;;;;5071851;28;20051;-80
2023/03/20 03:13:02;;;;;;;14.32;7.97;;;5.60;99.90;;;;;;5083547;28;20516;-79
2023/03/20 03:15:35;;;;;;;12.05;8.07;;;5.50;99.90;;;;;;5054877;28;20079;-80
2023/03/20 03:18:05;;;;;;;17.80;8.25;;;5.40;99.90;;;;;;5074493;28;20501;-80
2023/03/20 03:20:37;;;;;;;14.13;8.10;;;5.30;99.90;;;;;;5072577;28;20123;-80
2023/03/20 03:23:06;;;;;;;15.05;8.88;;;5.20;99.90;;;;;;5070789;28;20075;-82
2023/03/20 03:25:39;;;;;;;13.43;8.30;;;5.10;99.90;;;;;;5056280;28;20068;-79
2023/03/20 03:28:20;;;;;;;16.35;8.23;;;5.00;99.90;;;;;;5062674;28;20063;-80
2023/03/20 03:30:51;;;;;;;15.85;8.60;;;4.90;99.90;;;;;;5046065;28;20052;-79
2023/03/20 03:33:26;;;;;;;14.77;7.70;;;4.80;99.90;;;;;;5086273;28;20229;-80
2023/03/20 03:36:03;;;;;;;20.47;8.17;;;4.70;99.90;;;;;;5071632;28;20223;-81
2023/03/20 03:38:37;;;;;;;14.68;8.50;;;4.70;99.90;;;;;;5082502;28;20067;-82
2023/03/20 03:41:20;;;;;;;13.05;8.43;;;4.70;99.90;;;;;;5063373;28;20048;-78
2023/03/20 03:43:56;;;;;;;13.43;8.10;;;4.60;99.90;;;;;;5065596;28;20048;-74
2023/03/20 03:46:32;;;;;;;18.10;9.00;;;4.60;99.90;;;;;;5054004;28;20060;-73
2023/03/20 03:49:02;;;;;;;16.48;8.70;;;4.50;99.90;;;;;;5068618;28;20048;-75
2023/03/20 03:51:34;;;;;;;15.13;8.95;;;4.40;99.90;;;;;;5055000;28;20044;-75
2023/03/20 03:54:10;;;;;;;16.98;9.43;;;4.40;99.90;;;;;;5068791;28;20604;-75
2023/03/20 03:56:43;;;;;;;21.02;8.02;;;4.30;99.90;;;;;;5052229;28;20500;-74
2023/03/20 03:59:19;;;;;;;16.95;9.00;;;;;;;;;;5066527;28;20632;-74
2023/03/20 04:01:49;;;;;;;19.73;9.55;;;4.20;99.90;;;;;;5086147;28;20075;-75
2023/03/20 04:04:26;;;;;;;21.67;9.88;;;4.20;99.90;;;;;;5083904;28;20101;-75
2023/03/20 04:06:57;;;;;;;15.20;9.10;;;4.20;99.90;;;;;;5053748;28;20048;-81
2023/03/20 04:09:24;;;;;;;18.08;9.50;;;4.20;99.90;;;;;;5070002;28;20044;-83
2023/03/20 04:11:54;;;;;;;21.50;10.07;;;4.20;99.90;;;;;;5053287;28;20397;-75
2023/03/20 04:14:22;;;;;;;18.88;10.38;;;4.30;99.90;;;;;;5070781;28;20056;-81
2023/03/20 04:16:49;;;;;;;18.20;11.07;;;4.20;99.90;;;;;;5066831;28;20126;-80
2023/03/20 04:19:16;;;;;;;21.27;12.05;;;4.30;99.90;;;;;;5085491;28;20049;-82
2023/03/20 04:21:48;;;;;;;26.42;12.20;;;4.40;99.90;;;;;;5066503;28;20417;-83
2023/03/20 04:24:16;;;;;;;20.42;12.75;;;4.40;99.90;;;;;;5085071;28;20072;-83
2023/03/20 04:26:43;;;;;;;20.42;10.93;;;4.40;99.90;;;;;;5082049;28;20036;-82
2023/03/20 04:29:13;;;;;;;21.73;10.45;;;4.40;99.90;;;;;;5071731;28;20052;-82
2023/03/20 04:31:52;;;;;;;20.10;11.48;;;4.40;99.90;;;;;;5080977;28;20071;-82
2023/03/20 04:34:33;;;;;;;21.98;11.18;;;4.40;99.90;;;;;;5079518;28;20048;-80
2023/03/20 04:37:22;;;;;;;16.30;10.50;;;4.40;99.90;;;;;;5094703;28;20075;-83
2023/03/20 04:40:12;;;;;;;19.42;10.75;;;4.50;99.90;;;;;;5069466;28;20083;-83
2023/03/20 04:42:46;;;;;;;27.25;12.48;;;4.50;99.90;;;;;;5072002;28;20113;-78
2023/03/20 04:45:15;;;;;;;25.45;13.05;;;4.50;99.90;;;;;;5072349;28;20570;-78
2023/03/20 04:47:44;;;;;;;23.50;12.55;;;4.50;99.90;;;;;;5057153;28;20405;-78
2023/03/20 04:50:12;;;;;;;25.83;13.05;;;4.60;99.90;;;;;;5061878;28;20539;-77
2023/03/20 04:52:40;;;;;;;21.55;12.18;;;4.60;99.90;;;;;;5073620;28;20083;-77
2023/03/20 04:55:09;;;;;;;29.02;13.05;;;4.60;99.90;;;;;;5060383;28;20046;-78
2023/03/20 04:57:37;;;;;;;26.77;13.80;;;4.60;99.90;;;;;;5094054;28;20052;-78
2023/03/20 05:00:07;;;;;;;25.13;14.43;;;4.60;99.90;;;;;;5076399;28;20455;-75
2023/03/20 05:02:36;;;;;;;27.73;12.98;;;4.70;99.90;;;;;;5078413;28;20048;-75
2023/03/20 05:05:04;;;;;;;28.30;13.73;;;4.70;99.90;;;;;;5075927;28;20412;-75
2023/03/20 05:07:35;;;;;;;25.63;13.45;;;4.80;99.90;;;;;;5081430;28;20079;-74
2023/03/20 05:10:09;;;;;;;25.83;13.63;;;4.80;99.90;;;;;;5085039;28;20127;-81
2023/03/20 05:12:50;;;;;;;24.80;13.23;;;4.80;99.90;;;;;;5063706;28;20060;-78
2023/03/20 05:15:24;;;;;;;28.20;15.25;;;4.80;99.90;;;;;;5074002;28;20044;-81
2023/03/20 05:18:11;;;;;;;27.60;14.45;;;4.80;99.90;;;;;;5093638;28;20066;-83
2023/03/20 05:20:57;;;;;;;30.17;14.30;;;4.90;99.90;;;;;;5092203;28;20059;-80
2023/03/20 05:24:00;;;;;;;28.70;14.27;;;4.90;99.90;;;;;;5012348;28;20200;-82
2023/03/20 05:26:46;;;;;;;27.48;14.43;;;4.90;99.90;;;;;;5089203;28;20668;-81
2023/03/20 05:29:36;;;;;;;21.90;13.43;;;5.00;99.90;;;;;;5087344;28;20052;-81
2023/03/20 05:32:35;;;;;;;45.33;19.23;;;5.00;99.90;;;;;;5091702;28;20063;-81
2023/03/20 05:35:30;;;;;;;20.25;12.02;;;5.00;99.90;;;;;;5087543;28;20074;-80
2023/03/20 05:38:04;;;;;;;19.42;11.60;;;5.10;99.90;;;;;;5066908;28;20110;-83
2023/03/20 05:40:50;;;;;;;23.25;11.95;;;5.10;99.90;;;;;;5078057;28;20424;-82
2023/03/20 05:43:28;;;;;;;24.02;13.23;;;5.20;99.90;;;;;;5073146;28;20110;-83
2023/03/20 05:46:19;;;;;;;20.35;12.18;;;5.30;99.90;;;;;;5048691;28;20049;-83
2023/03/20 05:49:02;;;;;;;23.58;12.98;;;5.30;99.90;;;;;;5059926;28;20052;-82
2023/03/20 05:51:44;;;;;;;42.00;17.55;;;5.30;99.90;;;;;;5075869;28;20048;-81
2023/03/20 05:54:23;;;;;;;25.10;14.77;;;5.40;99.90;;;;;;5055642;28;20050;-81
2023/03/20 05:57:00;;;;;;;25.40;14.98;;;5.40;99.90;;;;;;5069997;28;20103;-78
2023/03/20 05:59:47;;;;;;;25.55;13.85;;;5.40;99.90;;;;;;5089437;28;20498;-77
2023/03/20 06:02:35;;;;;;;26.95;12.60;;;5.50;99.90;;;;;;5090523;28;20053;-78
2023/03/20 06:05:12;;;;;;;23.58;13.82;;;5.60;99.90;;;;;;5090361;28;20048;-81
2023/03/20 06:07:49;;;;;;;24.00;13.07;;;5.70;99.90;;;;;;5074447;28;20048;-82
2023/03/20 06:10:19;;;;;;;25.02;12.82;;;5.80;99.90;;;;;;5094270;28;20080;-83
2023/03/20 06:12:47;;;;;;;31.35;14.55;;;5.90;99.90;;;;;;5071847;28;20147;-82
2023/03/20 06:15:16;;;;;;;21.48;13.35;;;6.00;99.90;;;;;;5077718;28;20143;-82
2023/03/20 06:17:52;;;;;;;25.35;14.13;;;6.10;99.90;;;;;;5054082;28;20501;-77
2023/03/20 06:20:21;;;;;;;21.75;13.40;;;6.20;99.90;;;;;;5072177;28;20051;-77
2023/03/20 06:22:55;;;;;;;29.98;14.63;;;6.40;99.90;;;;;;5071565;28;20139;-77
2023/03/20 06:25:23;;;;;;;23.77;13.50;;;6.70;99.90;;;;;;5070603;28;20059;-79
2023/03/20 06:27:51;;;;;;;23.65;13.63;;;6.90;99.90;;;;;;5071484;28;20093;-78
2023/03/20 06:30:21;;;;;;;23.42;13.88;;;7.20;99.90;;;;;;5071404;28;20042;-78
2023/03/20 06:32:50;;;;;;;25.40;13.30;;;7.50;99.90;;;;;;5063330;28;20063;-78
2023/03/20 06:35:19;;;;;;;20.45;13.55;;;7.70;99.90;;;;;;5071951;28;20056;-77
2023/03/20 06:37:50;;;;;;;32.17;14.80;;;7.90;99.90;;;;;;5070563;28;20044;-78
2023/03/20 06:40:23;;;;;;;26.92;14.77;;;8.00;99.90;;;;;;5072727;28;20148;-78
2023/03/20 06:42:51;;;;;;;26.23;15.30;;;8.00;99.90;;;;;;5065766;28;20048;-80
2023/03/20 06:45:19;;;;;;;28.10;15.15;;;8.00;99.90;;;;;;5070964;28;20150;-81
2023/03/20 06:47:57;;;;;;;21.85;14.13;;;8.00;99.90;;;;;;5075244;28;20528;-81
2023/03/20 06:50:26;;;;;;;24.00;13.93;;;8.10;99.90;;;;;;5085688;28;20484;-81
2023/03/20 06:52:55;;;;;;;30.80;15.25;;;8.20;99.90;;;;;;5069702;28;20076;-80
2023/03/20 06:55:43;;;;;;;26.02;14.82;;;8.30;99.90;;;;;;5056568;28;20044;-81
2023/03/20 06:58:11;;;;;;;31.80;15.07;;;8.40;99.90;;;;;;5078096;28;20664;-81
2023/03/20 07:00:41;;;;;;;29.60;14.88;;;8.50;99.90;;;;;;5065618;28;20052;-76
2023/03/20 07:03:10;;;;;;;27.00;13.63;;;8.60;99.90;;;;;;5073894;28;20058;-79
2023/03/20 07:05:39;;;;;;;30.83;15.60;;;8.70;99.90;;;;;;5067862;28;20084;-78
2023/03/20 07:08:11;;;;;;;30.08;14.80;;;8.70;99.90;;;;;;5064063;28;20047;-77
2023/03/20 07:10:39;;;;;;;30.48;14.60;;;8.60;99.90;;;;;;5068319;28;20048;-76
2023/03/20 07:13:06;;;;;;;25.13;14.40;;;8.60;99.90;;;;;;5052302;28;20135;-76
2023/03/20 07:15:36;;;;;;;28.60;15.18;;;8.60;99.90;;;;;;5066956;28;20044;-77
2023/03/20 07:18:06;;;;;;;29.10;14.57;;;8.50;99.90;;;;;;5071061;28;20475;-78
2023/03/20 07:20:34;;;;;;;25.27;15.20;;;8.50;99.90;;;;;;5080299;28;20047;-76
2023/03/20 07:23:02;;;;;;;23.05;15.00;;;8.40;99.90;;;;;;5069480;28;20427;-76
2023/03/20 07:25:34;;;;;;;27.83;14.63;;;8.40;99.90;;;;;;5071565;28;20047;-76
2023/03/20 07:28:02;;;;;;;34.35;14.25;;;8.60;99.90;;;;;;5066874;28;20491;-76
2023/03/20 07:30:30;;;;;;;30.15;14.38;;;8.90;99.90;;;;;;5055517;28;20040;-78
2023/03/20 07:32:57;;;;;;;33.72;14.65;;;9.00;99.90;;;;;;5054527;28;20133;-77
2023/03/20 07:35:29;;;;;;;34.22;15.13;;;9.20;99.90;;;;;;5071675;28;20562;-77
2023/03/20 07:37:57;;;;;;;26.15;14.55;;;9.10;99.90;;;;;;5074640;28;20729;-77
2023/03/20 07:40:25;;;;;;;33.20;14.73;;;8.80;99.90;;;;;;5096362;28;20074;-77
2023/03/20 07:43:05;;;;;;;25.40;15.30;;;8.60;99.90;;;;;;5057209;28;20051;-75
2023/03/20 07:46:02;;;;;;;29.70;14.60;;;8.60;99.90;;;;;;5049424;28;20074;-78
2023/03/20 07:48:30;;;;;;;30.05;14.88;;;8.50;99.90;;;;;;5088805;28;20526;-76
2023/03/20 07:50:57;;;;;;;29.75;14.48;;;8.40;99.90;;;;;;5070982;28;20040;-77
2023/03/20 07:53:25;;;;;;;25.77;13.88;;;8.50;99.90;;;;;;5088386;28;20062;-76
2023/03/20 07:55:52;;;;;;;20.02;13.55;;;8.50;99.90;;;;;;5037771;28;20044;-77
2023/03/20 07:58:21;;;;;;;24.02;13.50;;;8.50;99.90;;;;;;5068175;28;20080;-78
2023/03/20 08:00:48;;;;;;;30.15;14.68;;;8.50;99.90;;;;;;5052540;28;20394;-76
2023/03/20 08:03:16;;;;;;;27.33;14.07;;;8.40;99.90;;;;;;5074272;28;20051;-76
2023/03/20 08:05:44;;;;;;;32.45;13.98;;;8.50;99.90;;;;;;5069569;28;20059;-77
2023/03/20 08:08:11;;;;;;;29.63;13.80;;;8.50;99.90;;;;;;5053132;28;20053;-77
2023/03/20 08:10:39;;;;;;;35.65;15.15;;;8.40;99.90;;;;;;5070621;28;20056;-76
2023/03/20 08:13:06;;;;;;;26.05;13.85;;;8.50;99.90;;;;;;5080515;28;20592;-76
2023/03/20 08:15:35;;;;;;;26.38;13.52;;;8.50;99.90;;;;;;5090850;28;20059;-76
2023/03/20 08:18:02;;;;;;;30.17;14.27;;;8.50;99.90;;;;;;5091264;28;20040;-77
2023/03/20 08:20:30;;;;;;;28.75;15.70;;;8.50;99.90;;;;;;5090981;28;20058;-76
2023/03/20 08:22:58;;;;;;;37.00;16.48;;;8.50;99.90;;;;;;5076849;28;20416;-78
2023/03/20 08:25:25;;;;;;;29.17;15.90;;;8.60;99.90;;;;;;5070862;28;20182;-76
2023/03/20 08:27:53;;;;;;;24.50;15.18;;;8.80;99.90;;;;;;5070817;28;20045;-76
2023/03/20 08:30:20;;;;;;;32.97;15.80;;;9.00;99.90;;;;;;5055141;28;20048;-77
2023/03/20 08:32:49;;;;;;;27.38;15.77;;;8.90;99.90;;;;;;5071978;28;20051;-77
2023/03/20 08:35:17;;;;;;;30.13;15.43;;;8.90;99.90;;;;;;5070898;28;20049;-77
2023/03/20 08:37:45;;;;;;;28.80;15.60;;;8.80;99.90;;;;;;5070683;28;20424;-77
2023/03/20 08:40:13;;;;;;;29.63;13.98;;;8.80;99.90;;;;;;5075744;28;20080;-77
2023/03/20 08:42:41;;;;;;;29.63;14.10;;;8.70;99.90;;;;;;5070310;28;20049;-77
2023/03/20 08:45:10;;;;;;;27.27;14.15;;;8.70;99.90;;;;;;5070819;28;20080;-77
2023/03/20 08:47:37;;;;;;;33.70;14.23;;;8.60;99.90;;;;;;5052606;28;20048;-77
2023/03/20 08:50:08;;;;;;;24.60;14.60;;;8.60;99.90;;;;;;5063839;28;20055;-77
2023/03/20 08:52:35;;;;;;;31.55;15.98;;;8.60;99.90;;;;;;5090613;28;20424;-76
2023/03/20 08:55:03;;;;;;;26.45;13.57;;;8.60;99.90;;;;;;5072240;28;20048;-76
2023/03/20 08:57:31;;;;;;;27.08;15.57;;;8.70;99.90;;;;;;5071745;28;20081;-75
2023/03/20 08:59:58;;;;;;;30.35;14.73;;;8.90;99.90;;;;;;5073656;28;20524;-77
2023/03/20 09:02:26;;;;;;;33.95;16.27;;;9.00;99.90;;;;;;5035792;28;20072;-77
2023/03/20 09:04:53;;;;;;;33.28;16.27;;;9.10;99.90;;;;;;5052485;28;20049;-77
2023/03/20 09:07:23;;;;;;;38.42;16.33;;;9.20;99.90;;;;;;5087399;28;20052;-78
2023/03/20 09:09:51;;;;;;;31.50;15.90;;;9.30;99.90;;;;;;5055883;28;20056;-77
2023/03/20 09:12:18;;;;;;;30.38;16.90;;;9.50;99.90;;;;;;5055262;28;20052;-77
2023/03/20 09:14:46;;;;;;;35.05;17.42;;;9.80;99.90;;;;;;5090695;28;20059;-77
2023/03/20 09:17:14;;;;;;;30.58;17.88;;;10.40;99.90;;;;;;5055089;28;20048;-77
2023/03/20 09:19:43;;;;;;;40.03;17.45;;;11.90;99.90;;;;;;5072358;28;20062;-78
2023/03/20 09:22:13;;;;;;;36.35;17.52;;;13.70;99.90;;;;;;5074018;28;20139;-77
2023/03/20 09:24:42;;;;;;;31.25;17.02;;;15.60;99.90;;;;;;5093858;28;20605;-77
2023/03/20 09:27:12;;;;;;;36.63;17.17;;;16.30;92.20;;;;;;5059700;28;20131;-77
2023/03/20 09:29:40;;;;;;;31.27;16.73;;;16.30;90.90;;;;;;5073770;28;20059;-77
2023/03/20 09:32:08;;;;;;;32.38;17.00;;;16.10;88.70;;;;;;5056939;28;20076;-77
2023/03/20 09:34:35;;;;;;;32.03;16.73;;;15.80;88.80;;;;;;5087895;28;20133;-77
2023/03/20 09:37:03;;;;;;;30.13;17.65;;;15.30;90.30;;;;;;5056216;28;20044;-81
2023/03/20 09:39:30;;;;;;;27.25;15.68;;;14.70;90.70;;;;;;5085815;28;20044;-83
2023/03/20 09:42:08;;;;;;;31.83;18.83;;;14.20;92.50;;;;;;5070979;28;20504;-82
2023/03/20 09:44:51;;;;;;;31.55;17.13;;;14.10;93.20;;;;;;5093163;28;20086;-81
2023/03/20 09:47:30;;;;;;;28.40;17.55;;;13.80;93.80;;;;;;5093369;28;20048;-82
2023/03/20 09:50:13;;;;;;;31.65;16.88;;;14.00;94.80;;;;;;5085561;28;20052;-80
2023/03/20 09:52:54;;;;;;;24.77;16.13;;;14.30;93.60;;;;;;5084164;28;20056;-81
2023/03/20 09:55:30;;;;;;;30.45;16.80;;;14.60;93.70;;;;;;5075559;28;20056;-80
2023/03/20 09:58:08;;;;;;;32.17;18.15;;;15.10;93.10;;;;;;5095035;28;20051;-81
2023/03/20 10:00:37;;;;;;;35.40;17.55;;;15.80;90.40;;;;;;5090191;28;20040;-81
2023/03/20 10:03:07;;;;;;;29.15;17.30;;;16.20;87.60;;;;;;5074403;28;20051;-82
2023/03/20 10:05:39;;;;;;;24.15;16.58;;;16.60;85.80;;;;;;5089602;28;20044;-81
2023/03/20 10:08:12;;;;;;;28.50;16.25;;;16.80;83.80;;;;;;5096531;28;20084;-82
2023/03/20 10:10:50;;;;;;;28.85;16.40;;;17.10;81.90;;;;;;5092589;28;20067;-83
2023/03/20 10:14:02;;;;;;;31.52;17.17;;;17.60;78.40;;;;;;5091916;28;20086;-82
2023/03/20 10:16:46;;;;;;;35.72;16.50;;;18.00;78.40;;;;;;5069161;28;20098;-83
2023/03/20 10:19:27;;;;;;;28.02;16.05;;;18.80;73.50;;;;;;5092386;28;20097;-83
2023/03/20 10:22:02;;;;;;;32.80;17.40;;;18.90;70.90;;;;;;5075202;28;20083;-82
2023/03/20 10:24:38;;;;;;;25.75;15.75;;;18.90;71.70;;;;;;5092854;28;20056;-82
2023/03/20 10:27:15;;;;;;;23.33;15.05;;;19.80;68.80;;;;;;5091813;28;20126;-78
2023/03/20 10:29:56;;;;;;;27.52;16.25;;;20.30;65.80;;;;;;5087281;28;20044;-78
2023/03/20 10:32:33;;;;;;;24.23;15.52;;;21.00;63.80;;;;;;5098926;28;20055;-77
2023/03/20 10:35:16;;;;;;;38.35;16.55;;;21.20;62.00;;;;;;5059820;28;20052;-78
2023/03/20 10:38:07;;;;;;;25.17;15.27;;;20.80;61.30;;;;;;5072459;28;20111;-77
2023/03/20 10:40:38;;;;;;;29.40;14.07;;;20.30;62.10;;;;;;5091266;28;20337;-77
2023/03/20 10:43:16;;;;;;;19.95;14.43;;;20.20;64.10;;;;;;5062158;28;20420;-78
2023/03/20 10:45:49;;;;;;;23.92;13.75;;;20.60;63.40;;;;;;5076956;28;20114;-78
2023/03/20 10:48:25;;;;;;;19.90;14.00;;;21.10;60.70;;;;;;5085116;28;20452;-77
2023/03/20 10:50:56;;;;;;;23.08;13.82;;;21.20;59.60;;;;;;5071874;28;20048;-82
2023/03/20 10:53:31;;;;;;;21.98;14.13;;;20.90;60.50;;;;;;5087850;28;20051;-81
2023/03/20 10:56:05;;;;;;;24.90;14.35;;;21.10;59.60;;;;;;5091930;28;20059;-76
2023/03/20 10:58:37;;;;;;;17.45;13.23;;;21.20;58.90;;;;;;5096006;28;20059;-78
2023/03/20 11:01:08;;;;;;;22.92;14.23;;;21.00;59.40;;;;;;5112451;28;20052;-78
2023/03/20 11:03:38;;;;;;;17.85;13.90;;;21.30;58.90;;;;;;5112239;28;20120;-79
2023/03/20 11:06:15;;;;;;;21.67;14.63;;;21.40;59.10;;;;;;5098017;28;20620;-77
2023/03/20 11:08:47;;;;;;;28.75;14.43;;;21.30;59.00;;;;;;5072968;28;20598;-77
2023/03/20 11:11:23;;;;;;;21.60;14.82;;;21.10;59.00;;;;;;5091711;28;20056;-78
2023/03/20 11:13:51;;;;;;;20.95;14.50;;;20.70;59.10;;;;;;5091935;28;20044;-77
2023/03/20 11:16:23;;;;;;;21.67;15.13;;;20.30;59.60;;;;;;5069775;28;20051;-77
2023/03/20 11:18:54;;;;;;;;;;;19.90;60.30;;;;;;5091533;28;20056;-77
2023/03/20 11:21:28;;;;;;;29.42;16.35;;;18.90;62.60;;;;;;5094337;28;19931;-79
2023/03/20 11:23:56;;;;;;;26.63;15.23;;;18.60;65.00;;;;;;5068079;28;20135;-79
2023/03/20 11:26:39;;;;;;;19.73;14.40;;;18.80;65.60;;;;;;5082384;28;20040;-80
2023/03/20 11:29:10;;;;;;;23.33;15.05;;;19.20;65.20;;;;;;5089001;28;20121;-80
2023/03/20 11:31:41;;;;;;;25.38;15.85;;;19.80;65.00;;;;;;5093534;28;20040;-80
2023/03/20 11:34:25;;;;;;;31.30;15.15;;;20.60;61.30;;;;;;5095943;28;20055;-80
2023/03/20 11:36:58;;;;;;;21.83;15.15;;;21.20;59.80;;;;;;5057390;28;20051;-79
2023/03/20 11:39:31;;;;;;;25.38;14.13;;;21.70;59.10;;;;;;5091133;28;20147;-80
2023/03/20 11:42:01;;;;;;;18.88;13.07;;;22.40;57.90;;;;;;5088669;28;20048;-78
2023/03/20 11:44:36;;;;;;;19.58;13.57;;;22.90;56.50;;;;;;5081212;28;20523;-80
2023/03/20 11:47:11;;;;;;;23.75;14.18;;;23.30;55.90;;;;;;5087789;28;20052;-80
2023/03/20 11:49:49;;;;;;;23.85;13.30;;;23.90;54.80;;;;;;5092239;28;20420;-78
2023/03/20 11:52:27;;;;;;;21.05;13.48;;;24.00;54.10;;;;;;5083477;28;20071;-78
2023/03/20 11:54:57;;;;;;;15.15;12.55;;;24.20;53.20;;;;;;5071041;28;20048;-79
2023/03/20 11:57:35;;;;;;;16.98;13.57;;;24.10;53.80;;;;;;5089822;28;20047;-80
2023/03/20 12:00:17;;;;;;;17.40;13.75;;;24.20;53.70;;;;;;5088488;28;20048;-77
2023/03/20 12:02:50;;;;;;;21.63;13.47;;;24.40;52.20;;;;;;5068703;28;20048;-80
2023/03/20 12:05:32;;;;;;;24.08;14.73;;;23.90;52.70;;;;;;5086581;28;20044;-79
2023/03/20 12:08:06;;;;;;;22.27;14.13;;;23.20;53.10;;;;;;5053969;28;20045;-79
2023/03/20 12:10:39;;;;;;;20.13;14.02;;;21.90;55.10;;;;;;5081310;28;20044;-79
2023/03/20 12:13:13;;;;;;;23.00;15.27;;;20.70;57.30;;;;;;5082298;28;20067;-80
2023/03/20 12:15:48;;;;;;;25.58;14.15;;;19.50;59.50;;;;;;5058042;28;20061;-77
2023/03/20 12:18:25;;;;;;;21.88;14.43;;;18.50;61.80;;;;;;5044430;28;20048;-76
2023/03/20 12:21:08;;;;;;;26.17;14.23;;;18.10;64.30;;;;;;5075704;28;20578;-76
2023/03/20 12:23:41;;;;;;;18.88;14.15;;;18.20;64.60;;;;;;5072019;28;20098;-79
2023/03/20 12:26:13;;;;;;;25.02;13.23;;;18.30;64.60;;;;;;5077613;28;20056;-78
2023/03/20 12:28:51;;;;;;;20.77;13.00;;;18.50;64.40;;;;;;5085543;28;20056;-76
2023/03/20 12:31:26;;;;;;;17.80;12.75;;;18.50;64.80;;;;;;5083729;28;20044;-77
2023/03/20 12:34:01;;;;;;;19.50;13.35;;;19.70;63.00;;;;;;5089954;28;20551;-78
2023/03/20 12:36:33;;;;;;;22.15;12.75;;;20.40;61.00;;;;;;5054437;28;20393;-77
2023/03/20 12:39:04;;;;;;;21.02;12.77;;;20.10;60.20;;;;;;5081650;28;20079;-76
2023/03/20 12:41:41;;;;;;;18.83;12.02;;;19.50;61.30;;;;;;5072148;28;20059;-76
2023/03/20 12:44:19;;;;;;;25.63;13.32;;;18.70;63.90;;;;;;5089943;28;20059;-76
2023/03/20 12:47:00;;;;;;;26.35;13.73;;;18.20;65.20;;;;;;5086063;28;20135;-77
2023/03/20 12:49:41;;;;;;;21.25;13.32;;;17.70;65.80;;;;;;5090654;28;20554;-76
2023/03/20 12:52:18;;;;;;;25.95;13.63;;;16.90;68.80;;;;;;5039236;28;20044;-76
2023/03/20 12:55:12;;;;;;;25.00;14.05;;;16.20;70.30;;;;;;5086558;28;20055;-76
2023/03/20 12:57:52;;;;;;;30.58;14.82;;;15.50;72.90;;;;;;5095093;28;20048;-78
2023/03/20 13:00:30;;;;;;;21.08;13.43;;;15.20;74.00;;;;;;5105093;28;20153;-77
2023/03/20 13:03:33;;;;;;;19.92;13.23;;;15.10;75.50;;;;;;5099809;28;20456;-75
2023/03/20 13:06:10;;;;;;;23.35;13.95;;;15.20;75.40;;;;;;5089830;28;20428;-77
2023/03/20 13:09:09;;;;;;;25.52;14.70;;;15.00;75.80;;;;;;5093187;28;20052;-78
2023/03/20 13:11:45;;;;;;;27.33;14.38;;;14.80;76.70;;;;;;5074880;28;20060;-76
2023/03/20 13:14:22;;;;;;;24.50;14.32;;;14.40;77.80;;;;;;5085428;28;20638;-77